Time;durP1;ratioP1;P1;durP2;ratioP2;P2;SDS_P1;SDS_P2;PMS_P1;PMS_P2;Temp;Humidity;BMP_temperature;BMP_pressure;BME280_temperature;BME280_humidity;BME280_pressure;Samples;Min_cycle;Max_cycle;Signal;HPM_P1;HPM_P2
2022/06/16 00:01:59;;;;;;;3.45;1.42;;;22.30;57.40;;;;;;5069818;28;20076;-59
2022/06/16 00:04:25;;;;;;;3.83;1.63;;;22.40;57.50;;;;;;5070838;28;20048;-59
2022/06/16 00:06:50;;;;;;;4.22;1.40;;;22.30;57.40;;;;;;5071841;28;20036;-59
2022/06/16 00:09:16;;;;;;;3.33;1.45;;;22.40;57.40;;;;;;5071682;28;20086;-59
2022/06/16 00:11:42;;;;;;;3.80;1.35;;;22.30;57.40;;;;;;5071563;28;20032;-60
2022/06/16 00:14:07;;;;;;;3.38;1.40;;;22.30;57.40;;;;;;5070919;28;20045;-60
2022/06/16 00:16:33;;;;;;;2.22;1.35;;;22.30;57.40;;;;;;5072384;28;20041;-60
2022/06/16 00:18:59;;;;;;;2.72;1.20;;;22.30;57.40;;;;;;5071669;28;20068;-60
2022/06/16 00:21:24;;;;;;;2.90;1.35;;;22.30;57.40;;;;;;5070906;28;20048;-60
2022/06/16 00:23:50;;;;;;;2.65;0.98;;;22.30;57.40;;;;;;5071958;28;20048;-60
2022/06/16 00:26:22;;;;;;;2.72;1.17;;;22.30;57.40;;;;;;5071908;28;20056;-60
2022/06/16 00:28:48;;;;;;;4.15;1.45;;;22.30;57.40;;;;;;5070769;28;20401;-60
2022/06/16 00:31:14;;;;;;;4.70;1.45;;;22.30;57.40;;;;;;5071997;28;20039;-59
2022/06/16 00:33:40;;;;;;;2.70;1.33;;;22.30;57.40;;;;;;5071610;28;20044;-59
2022/06/16 00:36:06;;;;;;;2.88;1.20;;;22.30;57.40;;;;;;5071303;28;20036;-59
2022/06/16 00:38:32;;;;;;;1.90;1.05;;;22.30;57.50;;;;;;5072171;28;20370;-59
2022/06/16 00:40:57;;;;;;;2.58;1.38;;;22.20;57.40;;;;;;5072418;28;20041;-60
2022/06/16 00:43:23;;;;;;;3.00;1.30;;;22.20;57.40;;;;;;5074730;28;20513;-59
2022/06/16 00:45:58;;;;;;;2.92;1.77;;;22.20;57.40;;;;;;5075455;28;20060;-59
2022/06/16 00:48:27;;;;;;;3.45;1.33;;;22.20;57.40;;;;;;5075091;28;20491;-59
2022/06/16 00:51:09;;;;;;;2.75;1.40;;;22.20;57.40;;;;;;5074409;28;20048;-59
2022/06/16 00:53:35;;;;;;;3.40;1.30;;;22.20;57.40;;;;;;5074284;28;20045;-59
2022/06/16 00:56:01;;;;;;;3.88;1.30;;;22.20;57.40;;;;;;5057522;28;20055;-59
2022/06/16 00:58:27;;;;;;;3.75;1.20;;;22.20;57.40;;;;;;5073182;28;20322;-59
2022/06/16 01:00:52;;;;;;;2.35;1.27;;;22.20;57.50;;;;;;5073789;28;20044;-59
2022/06/16 01:06:15;;;;;;;2.97;1.35;;;22.20;57.60;;;;;;5074798;28;20119;-59
2022/06/16 01:08:40;;;;;;;3.70;1.73;;;22.20;57.50;;;;;;5075113;28;20044;-59
2022/06/16 01:11:07;;;;;;;2.58;1.38;;;22.20;57.50;;;;;;5074244;28;20051;-59
2022/06/16 01:13:42;;;;;;;3.42;1.80;;;22.20;57.60;;;;;;5073830;28;20126;-59
2022/06/16 01:16:29;;;;;;;3.88;1.70;;;22.20;57.60;;;;;;5073689;28;20423;-59
2022/06/16 01:19:29;;;;;;;2.42;1.27;;;22.20;57.60;;;;;;5074622;28;20072;-59
2022/06/16 01:22:01;;;;;;;2.22;1.00;;;22.20;57.60;;;;;;5073451;28;20045;-59
2022/06/16 01:25:16;;;;;;;3.33;1.23;;;22.20;57.60;;;;;;5073121;28;20041;-60
2022/06/16 01:28:19;;;;;;;2.45;1.20;;;22.10;57.50;;;;;;5054361;28;20106;-59
2022/06/16 01:31:02;;;;;;;2.60;1.48;;;22.20;57.60;;;;;;5074586;28;20040;-59
2022/06/16 01:33:40;;;;;;;2.45;1.27;;;22.10;57.60;;;;;;5073737;28;20501;-59
2022/06/16 01:36:11;;;;;;;3.10;1.20;;;22.10;57.60;;;;;;5073972;28;20106;-59
2022/06/16 01:38:56;;;;;;;1.77;1.02;;;22.10;57.60;;;;;;5073618;28;20048;-59
2022/06/16 01:41:42;;;;;;;2.35;1.20;;;22.10;57.60;;;;;;5073676;28;20044;-59
2022/06/16 01:44:18;;;;;;;2.83;1.10;;;22.10;57.60;;;;;;5074228;28;20446;-59
2022/06/16 01:46:44;;;;;;;2.40;1.10;;;22.10;57.60;;;;;;5072988;28;20044;-59
2022/06/16 01:49:14;;;;;;;2.63;1.10;;;22.10;57.60;;;;;;5073250;28;20053;-59
2022/06/16 01:51:42;;;;;;;2.38;1.10;;;22.10;57.60;;;;;;5073512;28;20048;-59
2022/06/16 01:54:20;;;;;;;3.05;1.23;;;22.10;57.60;;;;;;5071879;28;20137;-59
2022/06/16 01:57:00;;;;;;;1.95;0.98;;;22.10;57.70;;;;;;5073118;28;20095;-59
2022/06/16 01:59:28;;;;;;;2.05;1.35;;;22.10;57.70;;;;;;5073059;28;20045;-59
2022/06/16 02:02:02;;;;;;;2.83;1.35;;;22.00;57.70;;;;;;5072325;28;20041;-59
2022/06/16 02:04:36;;;;;;;2.83;1.33;;;22.10;57.70;;;;;;5072641;28;20102;-59
2022/06/16 02:07:05;;;;;;;2.90;1.17;;;22.10;57.70;;;;;;5071774;28;20044;-59
2022/06/16 02:09:34;;;;;;;2.38;1.20;;;22.10;57.70;;;;;;5072641;28;20093;-59
2022/06/16 02:12:00;;;;;;;2.05;1.13;;;22.10;57.80;;;;;;5072607;28;20412;-59
2022/06/16 02:14:42;;;;;;;3.58;1.30;;;22.00;57.80;;;;;;5072052;28;20036;-59
2022/06/16 02:17:08;;;;;;;2.33;1.10;;;22.00;57.70;;;;;;5073886;28;20495;-60
2022/06/16 02:19:33;;;;;;;2.58;1.20;;;22.00;57.70;;;;;;5072546;28;20123;-60
2022/06/16 02:21:59;;;;;;;3.00;1.55;;;22.00;57.70;;;;;;5072841;28;20052;-60
2022/06/16 02:24:25;;;;;;;2.22;1.27;;;22.00;57.70;;;;;;5072195;28;20098;-59
2022/06/16 02:26:54;;;;;;;3.10;1.20;;;22.00;57.80;;;;;;5073106;28;20092;-59
2022/06/16 02:29:37;;;;;;;3.13;1.48;;;22.00;57.70;;;;;;5072848;28;20067;-59
2022/06/16 02:32:17;;;;;;;1.83;1.25;;;22.00;57.80;;;;;;5073176;28;20044;-59
2022/06/16 02:35:04;;;;;;;2.65;1.00;;;22.00;57.80;;;;;;5071497;28;20496;-60
2022/06/16 02:37:46;;;;;;;3.25;1.27;;;22.00;57.80;;;;;;5073518;28;20044;-59
2022/06/16 02:40:16;;;;;;;2.20;1.20;;;22.00;57.80;;;;;;5072556;28;20170;-59
2022/06/16 02:43:04;;;;;;;1.80;0.90;;;21.90;57.80;;;;;;5070599;28;20488;-59
2022/06/16 02:45:38;;;;;;;2.35;1.02;;;22.00;57.80;;;;;;5044378;28;20055;-59
2022/06/16 02:48:17;;;;;;;1.73;1.10;;;22.00;57.90;;;;;;5071473;28;20397;-60
2022/06/16 02:50:52;;;;;;;2.65;1.10;;;21.90;57.80;;;;;;5071609;28;20484;-60
2022/06/16 02:56:12;;;;;;;2.88;1.40;;;21.90;57.90;;;;;;5071176;28;20393;-60
2022/06/16 02:58:38;;;;;;;1.80;1.10;;;21.90;57.90;;;;;;5072361;28;20051;-59
2022/06/16 03:01:04;;;;;;;2.50;1.15;;;21.90;57.90;;;;;;5070655;28;20048;-60
2022/06/16 03:03:33;;;;;;;1.67;1.20;;;22.00;58.00;;;;;;5070252;28;20044;-59
2022/06/16 03:05:59;;;;;;;3.40;1.40;;;21.90;58.00;;;;;;5072011;28;20477;-60
2022/06/16 03:08:26;;;;;;;1.75;0.90;;;21.90;58.00;;;;;;5072573;28;20083;-60
2022/06/16 03:10:52;;;;;;;2.00;1.00;;;21.90;58.00;;;;;;5070236;28;20492;-60
2022/06/16 03:13:26;;;;;;;2.50;1.30;;;22.00;58.00;;;;;;5072873;28;20044;-59
2022/06/16 03:15:52;;;;;;;3.40;1.40;;;21.90;58.00;;;;;;5072477;28;20036;-59
2022/06/16 03:18:18;;;;;;;2.00;1.10;;;21.90;58.00;;;;;;5072046;28;20044;-59
2022/06/16 03:20:44;;;;;;;2.35;0.98;;;21.90;58.00;;;;;;5072467;28;20040;-59
2022/06/16 03:23:10;;;;;;;2.08;1.05;;;21.90;58.00;;;;;;5072615;28;20136;-60
2022/06/16 03:25:35;;;;;;;3.10;1.33;;;21.90;58.00;;;;;;5070710;28;20376;-59
2022/06/16 03:28:01;;;;;;;1.73;1.00;;;21.90;58.00;;;;;;5070576;28;20052;-60
2022/06/16 03:30:26;;;;;;;2.35;1.00;;;21.90;58.00;;;;;;5071935;28;20040;-60
2022/06/16 03:32:52;;;;;;;2.83;1.20;;;21.90;58.10;;;;;;5071770;28;20121;-60
2022/06/16 03:35:18;;;;;;;1.98;1.10;;;21.90;58.10;;;;;;5072337;28;20047;-60
2022/06/16 03:37:43;;;;;;;1.98;1.20;;;21.90;58.10;;;;;;5072197;28;20127;-59
2022/06/16 03:40:11;;;;;;;1.33;0.90;;;21.80;58.00;;;;;;5071554;28;20211;-59
2022/06/16 03:42:37;;;;;;;2.35;1.00;;;21.80;58.00;;;;;;5072489;28;20060;-59
2022/06/16 03:45:03;;;;;;;2.67;1.10;;;21.90;58.10;;;;;;5071888;28;20345;-59
2022/06/16 03:47:28;;;;;;;2.65;0.93;;;21.90;58.10;;;;;;5072360;28;20040;-59
2022/06/16 03:49:54;;;;;;;1.98;1.08;;;21.80;58.10;;;;;;5072097;28;20120;-60
2022/06/16 03:52:19;;;;;;;2.05;1.20;;;21.80;58.10;;;;;;5071864;28;20120;-59
2022/06/16 03:54:45;;;;;;;1.70;1.10;;;21.80;58.10;;;;;;5071908;28;20040;-59
2022/06/16 03:57:10;;;;;;;1.77;0.90;;;21.80;58.10;;;;;;5072284;28;20052;-60
2022/06/16 03:59:36;;;;;;;1.85;0.95;;;21.80;58.10;;;;;;5071409;28;20082;-59
2022/06/16 04:02:02;;;;;;;3.58;1.17;;;21.80;58.10;;;;;;5070638;28;20048;-60
2022/06/16 04:04:28;;;;;;;1.52;0.93;;;21.80;58.10;;;;;;5071440;28;20456;-59
2022/06/16 04:06:54;;;;;;;1.58;0.98;;;21.80;58.10;;;;;;5070495;28;20127;-59
2022/06/16 04:09:19;;;;;;;4.15;1.00;;;21.80;58.20;;;;;;5072609;28;20135;-59
2022/06/16 04:11:45;;;;;;;2.47;1.20;;;21.80;58.20;;;;;;5071755;28;20036;-60
2022/06/16 04:14:11;;;;;;;1.90;1.00;;;21.80;58.20;;;;;;5071487;28;20051;-60
2022/06/16 04:16:42;;;;;;;2.67;1.20;;;21.80;58.20;;;;;;5073970;28;20052;-60
2022/06/16 04:19:08;;;;;;;2.10;1.00;;;21.80;58.20;;;;;;5075869;28;20559;-59
2022/06/16 04:21:36;;;;;;;1.58;1.00;;;21.80;58.10;;;;;;5075525;28;20112;-59
2022/06/16 04:24:02;;;;;;;1.05;0.73;;;21.80;58.20;;;;;;5075478;28;20442;-59
2022/06/16 04:26:27;;;;;;;1.85;0.93;;;21.80;58.20;;;;;;5075729;28;20552;-59
2022/06/16 04:28:53;;;;;;;1.85;0.90;;;21.80;58.20;;;;;;5073442;28;20051;-59
2022/06/16 04:31:18;;;;;;;1.83;0.90;;;21.80;58.20;;;;;;5076058;28;20510;-60
2022/06/16 04:33:44;;;;;;;1.77;0.90;;;21.80;58.20;;;;;;5075617;28;20041;-60
2022/06/16 04:36:10;;;;;;;1.50;1.00;;;21.80;58.20;;;;;;5075177;28;20044;-60
2022/06/16 04:38:35;;;;;;;2.10;0.90;;;21.80;58.20;;;;;;5057976;28;20055;-59
2022/06/16 04:41:01;;;;;;;2.28;0.90;;;21.80;58.20;;;;;;5075315;28;20040;-60
2022/06/16 04:43:27;;;;;;;2.80;1.10;;;21.80;58.20;;;;;;5074755;28;20123;-60
2022/06/16 04:45:52;;;;;;;2.05;1.00;;;21.80;58.30;;;;;;5075317;28;20120;-60
2022/06/16 04:48:18;;;;;;;1.33;0.77;;;21.80;58.40;;;;;;5075233;28;20055;-60
2022/06/16 04:50:44;;;;;;;2.38;1.00;;;21.80;58.40;;;;;;5074290;28;20045;-60
2022/06/16 04:53:09;;;;;;;1.85;1.00;;;21.80;58.40;;;;;;5075599;28;20043;-59
2022/06/16 04:55:35;;;;;;;1.80;0.90;;;21.80;58.50;;;;;;5073274;28;20114;-59
2022/06/16 04:58:04;;;;;;;1.48;0.90;;;21.80;58.40;;;;;;5073345;28;20049;-59
2022/06/16 05:00:30;;;;;;;2.72;1.00;;;21.80;58.40;;;;;;5075108;28;20048;-59
2022/06/16 05:02:56;;;;;;;1.58;0.82;;;21.80;58.40;;;;;;5073903;28;20488;-59
2022/06/16 05:05:22;;;;;;;1.40;0.80;;;21.90;58.60;;;;;;5073184;28;20388;-59
2022/06/16 05:07:47;;;;;;;1.45;0.80;;;21.90;58.70;;;;;;5075026;28;20496;-59
2022/06/16 05:10:13;;;;;;;2.03;0.98;;;21.80;58.70;;;;;;5074311;28;20198;-59
2022/06/16 05:12:38;;;;;;;1.65;0.95;;;21.80;58.70;;;;;;5074757;28;20047;-60
2022/06/16 05:15:04;;;;;;;1.30;1.00;;;21.90;58.80;;;;;;5074393;28;20063;-59
2022/06/16 05:17:30;;;;;;;3.00;1.15;;;21.90;58.80;;;;;;5073578;28;20373;-59
2022/06/16 05:19:56;;;;;;;1.58;0.77;;;21.90;58.80;;;;;;5074551;28;20506;-60
2022/06/16 05:22:21;;;;;;;2.58;1.15;;;21.90;58.80;;;;;;5075231;28;20097;-60
2022/06/16 05:24:47;;;;;;;1.88;0.93;;;21.90;58.80;;;;;;5073485;28;20136;-60
2022/06/16 05:27:13;;;;;;;1.45;0.93;;;21.90;58.80;;;;;;5074261;28;20047;-59
2022/06/16 05:29:38;;;;;;;2.63;0.90;;;21.90;58.80;;;;;;5074414;28;20079;-59
2022/06/16 05:32:04;;;;;;;2.45;0.75;;;21.90;58.90;;;;;;5073874;28;20106;-60
2022/06/16 05:34:30;;;;;;;1.85;1.00;;;21.90;58.90;;;;;;5074813;28;20040;-60
2022/06/16 05:36:56;;;;;;;1.60;0.90;;;21.90;59.00;;;;;;5074464;28;20043;-59
2022/06/16 05:39:21;;;;;;;1.33;0.82;;;21.90;59.00;;;;;;5072613;28;20130;-60
2022/06/16 05:41:47;;;;;;;1.52;0.90;;;21.90;59.00;;;;;;5074253;28;20040;-59
2022/06/16 05:44:12;;;;;;;2.97;0.88;;;21.90;59.00;;;;;;5074273;28;20090;-59
2022/06/16 05:46:40;;;;;;;1.85;0.90;;;21.90;59.00;;;;;;5073969;28;20138;-59
2022/06/16 05:49:05;;;;;;;1.73;0.87;;;21.90;58.80;;;;;;5073791;28;20048;-59
2022/06/16 05:51:31;;;;;;;3.83;1.10;;;21.80;58.80;;;;;;5074366;28;20040;-59
2022/06/16 05:53:57;;;;;;;1.50;0.80;;;21.90;58.90;;;;;;5073523;28;20041;-59
2022/06/16 05:56:22;;;;;;;1.45;0.95;;;21.90;59.00;;;;;;5074516;28;20127;-59
2022/06/16 05:58:48;;;;;;;1.20;0.80;;;21.90;59.00;;;;;;5073062;28;20040;-59
2022/06/16 06:01:13;;;;;;;2.08;1.08;;;21.90;59.00;;;;;;5074363;28;20036;-59
2022/06/16 06:03:39;;;;;;;2.22;0.73;;;21.90;59.00;;;;;;5074116;28;20400;-59
2022/06/16 06:06:05;;;;;;;1.30;0.70;;;21.90;59.10;;;;;;5073321;28;20036;-59
2022/06/16 06:17:07;;;;;;;1.50;0.80;;;21.90;59.00;;;;;;5072926;28;20053;-59
2022/06/16 06:19:33;;;;;;;2.53;1.05;;;21.80;59.00;;;;;;5072760;28;20201;-59
2022/06/16 06:22:14;;;;;;;2.45;0.73;;;21.90;59.00;;;;;;5072355;28;20037;-60
2022/06/16 06:25:00;;;;;;;2.00;0.80;;;21.90;59.10;;;;;;5073472;28;20045;-60
2022/06/16 06:27:28;;;;;;;2.30;0.80;;;21.90;59.10;;;;;;5072577;28;20052;-62
2022/06/16 06:29:54;;;;;;;1.70;0.88;;;22.00;59.20;;;;;;5073336;28;20056;-59
2022/06/16 06:32:20;;;;;;;3.13;1.08;;;22.00;59.20;;;;;;5073383;28;20520;-60
2022/06/16 06:34:46;;;;;;;4.30;1.15;;;22.00;59.10;;;;;;5072437;28;20048;-60
2022/06/16 06:37:13;;;;;;;2.70;1.15;;;22.00;59.10;;;;;;5073849;28;20040;-60
2022/06/16 06:39:38;;;;;;;2.88;0.90;;;22.00;58.90;;;;;;5073410;28;20045;-60
2022/06/16 06:42:04;;;;;;;3.38;0.80;;;22.00;58.70;;;;;;5072186;28;20047;-60
2022/06/16 06:44:30;;;;;;;2.33;0.90;;;22.00;58.50;;;;;;5073078;28;20093;-60
2022/06/16 06:46:56;;;;;;;3.92;0.90;;;22.00;58.20;;;;;;5072879;28;20499;-59
2022/06/16 06:49:21;;;;;;;3.60;1.00;;;22.00;58.10;;;;;;5072591;28;20105;-60
2022/06/16 06:51:47;;;;;;;2.47;1.08;;;22.00;57.80;;;;;;5072510;28;20131;-60
2022/06/16 06:54:13;;;;;;;6.25;0.90;;;22.00;58.20;;;;;;5072631;28;20071;-60
2022/06/16 06:56:38;;;;;;;2.75;0.60;;;21.90;57.40;;;;;;5071619;28;20094;-60
2022/06/16 06:59:09;;;;;;;3.15;0.80;;;21.90;57.20;;;;;;5072136;28;20044;-60
2022/06/16 07:01:35;;;;;;;3.08;0.65;;;21.90;57.10;;;;;;5070561;28;20051;-60
2022/06/16 07:04:02;;;;;;;4.43;1.00;;;21.90;57.20;;;;;;5071343;28;20036;-59
2022/06/16 07:06:28;;;;;;;3.08;0.90;;;22.00;57.10;;;;;;5072679;28;20542;-60
2022/06/16 07:08:53;;;;;;;1.45;0.77;;;22.00;57.00;;;;;;5072488;28;20048;-60
2022/06/16 07:11:19;;;;;;;1.95;0.65;;;22.00;57.00;;;;;;5072205;28;20090;-60
2022/06/16 07:13:44;;;;;;;1.50;0.70;;;21.90;56.80;;;;;;5071812;28;20090;-60
2022/06/16 07:16:10;;;;;;;2.17;0.77;;;21.90;56.90;;;;;;5071792;28;20074;-60
2022/06/16 07:18:35;;;;;;;6.95;0.90;;;22.00;56.60;;;;;;5072845;28;20119;-60
2022/06/16 07:21:01;;;;;;;3.80;0.75;;;22.00;56.50;;;;;;5072625;28;20392;-60
2022/06/16 07:23:27;;;;;;;2.67;0.77;;;22.00;56.30;;;;;;5071957;28;20048;-60
2022/06/16 07:25:52;;;;;;;5.05;0.80;;;22.00;56.20;;;;;;5072292;28;20158;-61
2022/06/16 07:28:18;;;;;;;2.08;0.77;;;21.90;56.10;;;;;;5072419;28;20128;-60
2022/06/16 07:30:44;;;;;;;1.88;0.70;;;21.90;56.10;;;;;;5071766;28;20048;-60
2022/06/16 07:33:09;;;;;;;2.40;0.80;;;21.90;56.00;;;;;;5072580;28;20068;-61
2022/06/16 07:35:36;;;;;;;3.83;0.93;;;21.90;56.00;;;;;;5072331;28;20048;-60
2022/06/16 07:38:01;;;;;;;2.85;0.70;;;22.00;55.90;;;;;;5071581;28;20037;-60
2022/06/16 07:40:27;;;;;;;3.00;0.65;;;21.90;55.70;;;;;;5072190;28;20314;-61
2022/06/16 07:42:56;;;;;;;2.60;0.73;;;21.90;55.60;;;;;;5070889;28;20067;-61
2022/06/16 07:45:23;;;;;;;2.15;0.55;;;22.00;55.50;;;;;;5071827;28;20048;-60
2022/06/16 07:47:50;;;;;;;2.10;0.63;;;22.00;55.50;;;;;;5071866;28;20400;-60
2022/06/16 07:50:16;;;;;;;2.30;0.70;;;22.00;55.40;;;;;;5071903;28;20058;-60
2022/06/16 07:52:41;;;;;;;1.27;0.50;;;21.90;55.20;;;;;;5076916;28;20139;-62
2022/06/16 07:55:07;;;;;;;2.15;0.60;;;22.00;55.20;;;;;;5078656;28;20051;-61
2022/06/16 07:57:42;;;;;;;3.38;0.68;;;22.00;55.10;;;;;;5078081;28;20050;-61
2022/06/16 08:00:08;;;;;;;1.95;0.75;;;22.00;54.90;;;;;;5077685;28;20051;-60
2022/06/16 08:02:33;;;;;;;1.73;0.55;;;22.00;55.00;;;;;;5078293;28;20038;-60
2022/06/16 08:04:59;;;;;;;1.77;0.85;;;21.90;54.80;;;;;;5077836;28;20044;-60
2022/06/16 08:07:24;;;;;;;3.08;0.63;;;22.00;54.80;;;;;;5077896;28;20043;-61
2022/06/16 08:09:50;;;;;;;2.78;0.82;;;22.00;54.60;;;;;;5078185;28;20048;-60
2022/06/16 08:12:15;;;;;;;1.02;0.50;;;22.00;54.60;;;;;;5078967;28;20072;-60
2022/06/16 08:14:43;;;;;;;0.95;0.40;;;22.00;54.60;;;;;;5076464;28;20050;-60
2022/06/16 08:17:16;;;;;;;2.17;0.52;;;22.00;54.50;;;;;;5078872;28;20563;-59
2022/06/16 08:19:41;;;;;;;2.85;0.50;;;21.90;54.50;;;;;;5077252;28;20044;-60
2022/06/16 08:22:07;;;;;;;3.08;0.50;;;21.90;53.30;;;;;;5079698;28;20047;-61
2022/06/16 08:24:32;;;;;;;1.60;0.50;;;22.00;53.00;;;;;;5078265;28;20471;-60
2022/06/16 08:26:59;;;;;;;1.33;0.40;;;22.00;53.20;;;;;;5077292;28;20576;-61
2022/06/16 08:29:25;;;;;;;3.28;0.50;;;21.90;53.20;;;;;;5077979;28;20080;-60
2022/06/16 08:31:51;;;;;;;2.25;0.55;;;21.90;52.90;;;;;;5077575;28;20086;-61
2022/06/16 08:34:16;;;;;;;3.88;0.63;;;21.90;52.70;;;;;;5077998;28;20033;-61
2022/06/16 08:36:42;;;;;;;4.72;0.70;;;21.90;52.50;;;;;;5077425;28;20079;-61
2022/06/16 08:39:08;;;;;;;5.13;0.70;;;21.90;52.60;;;;;;5057875;28;20048;-61
2022/06/16 08:41:50;;;;;;;5.90;0.80;;;21.90;52.70;;;;;;5063851;28;20037;-60
2022/06/16 08:44:38;;;;;;;6.03;0.73;;;21.90;52.50;;;;;;5078573;28;20093;-62
2022/06/16 08:47:14;;;;;;;6.97;0.95;;;21.90;52.40;;;;;;5077153;28;20487;-63
2022/06/16 08:50:00;;;;;;;6.22;0.70;;;22.00;53.30;;;;;;5070824;28;20405;-62
2022/06/16 08:52:54;;;;;;;6.47;1.20;;;22.00;52.60;;;;;;5042899;28;20092;-61
2022/06/16 08:56:01;;;;;;;2.55;0.65;;;22.00;52.70;;;;;;5056891;28;20098;-63
2022/06/16 08:58:35;;;;;;;10.52;0.95;;;22.00;52.70;;;;;;5057882;28;20053;-60
2022/06/16 09:01:09;;;;;;;2.55;0.77;;;22.00;52.70;;;;;;5057569;28;20132;-61
2022/06/16 09:03:44;;;;;;;3.13;0.65;;;22.00;52.70;;;;;;5054021;28;20540;-60
2022/06/16 09:06:25;;;;;;;3.58;0.55;;;22.00;52.70;;;;;;5054922;28;20512;-62
2022/06/16 09:09:12;;;;;;;3.30;0.80;;;22.00;52.80;;;;;;5052971;28;20049;-61
2022/06/16 09:12:01;;;;;;;2.77;0.67;;;22.00;52.90;;;;;;5070774;28;20115;-62
2022/06/16 09:17:41;;;;;;;4.22;0.77;;;22.00;52.90;;;;;;5073142;28;20495;-62
2022/06/16 09:20:23;;;;;;;3.72;0.90;;;22.10;52.40;;;;;;5075028;28;20040;-61
2022/06/16 09:22:56;;;;;;;5.88;1.50;;;22.20;51.90;;;;;;5072662;28;20373;-60
2022/06/16 09:25:53;;;;;;;8.20;1.70;;;22.20;52.00;;;;;;5074761;28;20589;-62
2022/06/16 09:28:31;;;;;;;9.40;2.15;;;22.30;52.00;;;;;;5073541;28;20045;-62
2022/06/16 09:30:58;;;;;;;7.13;2.08;;;22.30;52.00;;;;;;5072549;28;20392;-62
2022/06/16 09:33:27;;;;;;;5.72;1.80;;;22.40;52.00;;;;;;5073740;28;20048;-61
2022/06/16 09:35:59;;;;;;;7.13;1.77;;;22.30;51.90;;;;;;5072862;28;20484;-61
2022/06/16 09:38:33;;;;;;;7.95;2.05;;;22.30;51.80;;;;;;5074034;28;20496;-62
2022/06/16 09:44:32;;;;;;;9.00;2.17;;;22.30;51.70;;;;;;5073918;28;20052;-62
2022/06/16 09:47:02;;;;;;;7.28;1.50;;;22.20;51.80;;;;;;5073079;28;20102;-61
2022/06/16 09:49:36;;;;;;;5.90;1.63;;;22.20;51.90;;;;;;5074452;28;20055;-61
2022/06/16 09:52:09;;;;;;;7.00;1.98;;;22.20;52.10;;;;;;5073111;28;20048;-62
2022/06/16 09:54:48;;;;;;;8.10;1.75;;;22.20;52.60;;;;;;5073087;28;20044;-61
2022/06/16 09:57:46;;;;;;;9.07;1.52;;;22.20;53.10;;;;;;5073260;28;20041;-60
2022/06/16 10:00:18;;;;;;;6.68;1.95;;;22.20;53.50;;;;;;5069997;28;20049;-59
2022/06/16 10:02:49;;;;;;;5.63;1.67;;;22.20;54.60;;;;;;5067564;28;20041;-61
2022/06/16 10:05:17;;;;;;;3.70;1.42;;;22.20;53.90;;;;;;5061984;28;20381;-60
2022/06/16 10:08:04;;;;;;;6.40;1.70;;;22.20;53.60;;;;;;5069271;28;20044;-60
2022/06/16 10:10:33;;;;;;;9.07;1.80;;;22.20;52.50;;;;;;5070809;28;20041;-60
2022/06/16 10:13:04;;;;;;;4.60;1.42;;;22.20;52.50;;;;;;5070057;28;20405;-60
2022/06/16 10:15:52;;;;;;;5.13;1.42;;;22.10;52.10;;;;;;5068438;28;20044;-60
2022/06/16 10:18:18;;;;;;;4.75;1.67;;;22.10;51.30;;;;;;5070206;28;20048;-60
2022/06/16 10:20:44;;;;;;;4.47;1.40;;;22.10;51.40;;;;;;5071529;28;20044;-60
2022/06/16 10:23:24;;;;;;;5.88;1.80;;;22.10;51.30;;;;;;5071644;28;20090;-60
2022/06/16 10:25:55;;;;;;;4.07;1.67;;;22.10;51.40;;;;;;5068585;28;20127;-60
2022/06/16 10:28:59;;;;;;;3.78;1.35;;;22.10;51.30;;;;;;5071867;28;20480;-60
2022/06/16 10:31:38;;;;;;;8.32;1.67;;;22.10;51.20;;;;;;5072218;28;20068;-60
2022/06/16 10:34:18;;;;;;;2.95;1.40;;;22.10;51.30;;;;;;5071622;28;20053;-60
2022/06/16 10:36:51;;;;;;;4.72;1.40;;;22.10;51.30;;;;;;5071116;28;20469;-60
2022/06/16 10:39:35;;;;;;;4.90;1.20;;;22.10;51.40;;;;;;5073229;28;20121;-60
2022/06/16 10:42:19;;;;;;;2.85;1.20;;;22.10;51.30;;;;;;5071185;28;20056;-60
2022/06/16 10:44:50;;;;;;;5.25;2.50;;;22.20;51.50;;;;;;5071134;28;20057;-60
2022/06/16 10:47:21;;;;;;;4.57;2.00;;;22.20;51.70;;;;;;5069332;28;20037;-60
2022/06/16 10:49:47;;;;;;;7.30;2.22;;;22.20;52.30;;;;;;5071255;28;20101;-60
2022/06/16 10:52:14;;;;;;;5.00;2.05;;;22.20;52.80;;;;;;5071930;28;20041;-60
2022/06/16 10:55:00;;;;;;;3.80;1.40;;;22.20;53.10;;;;;;5070764;28;20067;-60
2022/06/16 10:57:30;;;;;;;6.28;1.85;;;22.20;52.90;;;;;;5072901;28;20041;-60
2022/06/16 11:00:13;;;;;;;4.10;1.55;;;22.30;52.90;;;;;;5072523;28;20059;-59
2022/06/16 11:03:14;;;;;;;3.40;1.65;;;22.20;52.90;;;;;;5072349;28;20050;-60
2022/06/16 11:05:59;;;;;;;5.45;1.70;;;22.30;52.70;;;;;;5068644;28;20092;-59
2022/06/16 11:08:33;;;;;;;4.40;1.50;;;22.30;52.00;;;;;;5087159;28;20423;-60
2022/06/16 11:10:58;;;;;;;3.92;1.65;;;22.30;51.90;;;;;;5071189;28;20044;-60
2022/06/16 11:13:36;;;;;;;5.63;1.48;;;22.20;51.60;;;;;;5071643;28;20051;-59
2022/06/16 11:16:06;;;;;;;5.10;1.73;;;22.30;51.30;;;;;;5070932;28;20051;-59
2022/06/16 11:18:31;;;;;;;3.88;1.55;;;22.30;51.30;;;;;;5072716;28;20036;-59
2022/06/16 11:20:58;;;;;;;5.70;1.75;;;22.30;51.40;;;;;;5071195;28;20056;-59
2022/06/16 11:23:34;;;;;;;6.43;1.60;;;22.20;51.40;;;;;;5070406;28;20045;-59
2022/06/16 11:26:05;;;;;;;5.00;1.83;;;22.30;51.60;;;;;;5068696;28;20082;-59
2022/06/16 11:28:30;;;;;;;4.30;1.30;;;22.30;51.60;;;;;;5072149;28;20052;-60
2022/06/16 11:31:00;;;;;;;4.10;1.40;;;22.30;51.70;;;;;;5071626;28;20365;-60
2022/06/16 11:36:42;;;;;;;4.68;1.42;;;22.40;51.70;;;;;;5072401;28;20492;-59
2022/06/16 11:39:25;;;;;;;3.67;1.77;;;22.30;51.50;;;;;;5072707;28;20045;-59
2022/06/16 11:41:51;;;;;;;5.63;2.00;;;22.30;51.70;;;;;;5072097;28;20515;-59
2022/06/16 11:44:55;;;;;;;5.35;1.90;;;22.40;51.70;;;;;;5071864;28;20090;-59
2022/06/16 11:47:45;;;;;;;5.03;2.00;;;22.30;51.70;;;;;;5030098;28;20132;-59
2022/06/16 11:50:28;;;;;;;5.22;2.25;;;22.40;51.80;;;;;;5030072;28;20046;-59
2022/06/16 11:53:27;;;;;;;4.07;1.83;;;22.40;52.00;;;;;;5061125;28;20060;-59
2022/06/16 11:56:02;;;;;;;4.57;1.83;;;22.40;52.10;;;;;;5071009;28;20084;-59
2022/06/16 11:58:40;;;;;;;3.50;1.70;;;22.40;52.10;;;;;;5069219;28;20527;-59
2022/06/16 12:01:13;;;;;;;3.75;1.63;;;22.40;52.10;;;;;;5066316;28;20041;-59
2022/06/16 12:03:48;;;;;;;3.72;1.77;;;22.40;52.20;;;;;;5070817;28;20041;-59
2022/06/16 12:06:26;;;;;;;4.53;1.85;;;22.40;52.20;;;;;;5069935;28;20059;-59
2022/06/16 12:09:24;;;;;;;4.90;1.90;;;22.40;52.30;;;;;;5068841;28;20056;-59
2022/06/16 12:12:16;;;;;;;4.07;1.67;;;22.40;52.40;;;;;;5101318;28;20193;-59
2022/06/16 12:15:09;;;;;;;4.65;1.80;;;22.40;52.50;;;;;;5065268;28;20072;-60
2022/06/16 12:17:47;;;;;;;5.90;1.90;;;22.40;52.60;;;;;;5071806;28;20135;-60
2022/06/16 12:20:22;;;;;;;3.10;1.88;;;22.40;52.60;;;;;;5070804;28;20036;-60
2022/06/16 12:22:54;;;;;;;4.47;1.90;;;22.40;52.80;;;;;;5068022;28;20068;-60
2022/06/16 12:26:09;;;;;;;4.82;1.95;;;22.40;52.80;;;;;;5066935;28;20607;-60
2022/06/16 12:28:43;;;;;;;3.67;1.60;;;22.40;53.00;;;;;;5039720;28;20063;-60
2022/06/16 12:31:40;;;;;;;2.88;1.50;;;22.40;53.00;;;;;;5051917;28;20087;-59
2022/06/16 12:34:13;;;;;;;2.33;1.30;;;22.40;53.10;;;;;;5049688;28;20053;-60
2022/06/16 12:36:44;;;;;;;3.90;1.50;;;22.40;53.20;;;;;;5050769;28;20052;-60
2022/06/16 12:39:13;;;;;;;2.67;1.65;;;22.40;53.30;;;;;;5055602;28;20051;-60
2022/06/16 12:41:41;;;;;;;3.10;1.70;;;22.40;53.30;;;;;;5054161;28;20052;-58
2022/06/16 12:44:15;;;;;;;5.10;1.70;;;22.40;53.30;;;;;;5054382;28;20056;-58
2022/06/16 12:46:44;;;;;;;2.85;1.77;;;22.50;53.60;;;;;;5052984;28;20400;-60
2022/06/16 12:49:17;;;;;;;6.05;1.77;;;22.50;53.50;;;;;;5054345;28;20041;-60
2022/06/16 12:51:49;;;;;;;2.85;1.48;;;22.50;53.40;;;;;;5054530;28;20041;-58
2022/06/16 12:54:23;;;;;;;2.78;1.60;;;22.50;53.40;;;;;;5065470;28;20492;-58
2022/06/16 12:57:06;;;;;;;3.28;1.60;;;22.50;53.50;;;;;;5073533;28;20381;-59
2022/06/16 12:59:42;;;;;;;4.03;1.73;;;22.50;53.70;;;;;;5074332;28;20120;-60
2022/06/16 13:02:09;;;;;;;4.10;1.40;;;22.50;53.70;;;;;;5073504;28;20044;-60
2022/06/16 13:04:35;;;;;;;5.22;1.98;;;22.60;53.80;;;;;;5073988;28;20052;-59
2022/06/16 13:07:03;;;;;;;4.95;1.70;;;22.50;53.80;;;;;;5074898;28;20036;-60
2022/06/16 13:09:29;;;;;;;5.72;1.52;;;22.60;54.00;;;;;;5074296;28;20515;-60
2022/06/16 13:12:04;;;;;;;5.85;1.50;;;22.50;54.10;;;;;;5073384;28;20044;-58
2022/06/16 13:14:57;;;;;;;3.03;1.45;;;22.60;54.40;;;;;;5073796;28;20098;-58
2022/06/16 13:17:26;;;;;;;5.82;2.05;;;22.70;54.40;;;;;;5075081;28;20036;-58
2022/06/16 13:19:55;;;;;;;7.45;1.70;;;22.70;54.60;;;;;;5073259;28;20637;-58
2022/06/16 13:22:42;;;;;;;9.57;2.22;;;22.70;54.60;;;;;;5072846;28;20055;-59
2022/06/16 13:25:13;;;;;;;2.95;1.50;;;22.70;54.90;;;;;;5073548;28;20060;-58
2022/06/16 13:27:39;;;;;;;5.10;1.55;;;22.80;54.80;;;;;;5074677;28;20051;-58
2022/06/16 13:30:04;;;;;;;3.35;1.40;;;22.80;54.70;;;;;;5073806;28;20052;-58
2022/06/16 13:32:36;;;;;;;4.45;1.50;;;22.80;54.80;;;;;;5074910;28;20105;-58
2022/06/16 13:35:14;;;;;;;4.95;1.73;;;22.80;54.80;;;;;;5074071;28;20041;-58